Black Star — 9HA2911 — position and weather

sailwx.info

Track history (hours):
 
Tides and Currents Weather Stations Pressure Air Temp Water Temp Dewpoint Dewpoint Depression Visibility Wind Speed Wind Dir Waves Ship Positions

Black Star

Last reported at 2017-Mar-26 16:30 UTC. Time now 2017-Mar-26 18:47 UTC.
Position N 34°35' E 034°48'.

Length 128 m; draft 5.7 m.

Type: Tanker. MMSI: 256714000.

Date/timePositionNaut miles runAvg speedWind from/ knotsBaromVisibWave heightAir tempDewpointWater temp
2017-Mar-26 16:30N 34°35' E 034°48'1314.0
2017-Mar-26 15:33N 34°22' E 034°46'1414.5
2017-Mar-26 14:33N 34°07' E 034°44'2914.6
2017-Mar-26 12:32N 33°38' E 034°38'1414.0
2017-Mar-26 11:33N 33°25' E 034°35'2613.2
2017-Mar-26 09:33N 32°58' E 034°35'1413.8
2017-Mar-26 08:33N 32°54' E 034°51'8 8.3
2017-Mar-26 07:33N 32°52' E 035°00'1 0.5
2017-Mar-26 06:26N 32°53' E 035°01'1 1.5
2017-Mar-26 05:33N 32°52' E 035°00'2 2.2
2017-Mar-26 04:33N 32°52' E 034°57'7 6.6
2017-Mar-26 03:33N 32°54' E 034°50'22 6.9
2017-Mar-26 00:17N 32°58' E 034°23'6 7.3
2017-Mar-25 23:31N 33°03' E 034°23'8 7.2
2017-Mar-25 22:25N 33°11' E 034°22'7 7.6
2017-Mar-25 21:33N 33°17' E 034°20'8 7.8
2017-Mar-25 20:30N 33°25' E 034°18'7 7.5
2017-Mar-25 19:31N 33°33' E 034°16'7 6.2
2017-Mar-25 18:26N 33°38' E 034°21'22 7.4
2017-Mar-25 15:31N 33°56' E 034°05'8 8.6
2017-Mar-25 14:33N 34°04' E 034°02'8 8.3
2017-Mar-25 13:34N 34°11' E 033°58'8 8.1
2017-Mar-25 12:33N 34°19' E 033°55'9 8.6
2017-Mar-25 11:32N 34°27' E 033°52'9 8.6
2017-Mar-25 10:31N 34°36' E 033°48'9 9.1
2017-Mar-25 09:31N 34°44' E 033°45'1212.1
2017-Mar-25 08:33N 34°55' E 033°40'19 0.6
2017-Mar-23 23:28N 34°38' E 033°48'10813.1
2017-Mar-23 15:14N 32°57' E 034°34'1011.2
2017-Mar-23 14:21N 32°56' E 034°45'1012.1
2017-Mar-23 13:33N 32°55' E 034°57'7 3.5
2017-Mar-23 11:29N 32°49' E 035°02'0 0.0
2017-Mar-23 10:29N 32°49' E 035°02'0 0.0
2017-Mar-23 09:29N 32°49' E 035°02'0 0.0
2017-Mar-23 08:17N 32°49' E 035°02'0 0.0
2017-Mar-23 07:29N 32°49' E 035°02'0 0.0
2017-Mar-23 06:29N 32°49' E 035°02'0 0.0
2017-Mar-23 04:11N 32°49' E 035°02'0 0.0
2017-Mar-23 03:29N 32°49' E 035°02'0 0.0
2017-Mar-23 02:29N 32°49' E 035°02'0 0.0
2017-Mar-23 01:29N 32°49' E 035°02'0 0.0
2017-Mar-23 00:29N 32°49' E 035°02'0 0.0
2017-Mar-22 23:23N 32°49' E 035°02'0 0.0
2017-Mar-22 22:23N 32°49' E 035°02'0 0.0
2017-Mar-22 21:11N 32°49' E 035°02'0 0.0
2017-Mar-22 20:29N 32°49' E 035°02'0 0.0
2017-Mar-22 19:29N 32°49' E 035°02'2 0.5
2017-Mar-22 15:05N 32°51' E 035°01'1 1.0
2017-Mar-22 14:33N 32°51' E 034°60'3 2.6
2017-Mar-22 13:33N 32°54' E 035°01'0 0.3
2017-Mar-22 12:32N 32°53' E 035°01'0 0.0
2017-Mar-22 10:32N 32°53' E 035°01'0 0.0
2017-Mar-22 09:26N 32°53' E 035°01'0 0.0
2017-Mar-22 08:20N 32°53' E 035°01'0 0.1
2017-Mar-22 06:32N 32°54' E 035°01'0 0.0
2017-Mar-22 05:29N 32°54' E 035°01'0 0.0
2017-Mar-22 04:32N 32°54' E 035°01'0 0.0
2017-Mar-22 03:32N 32°53' E 035°01'0 0.0
2017-Mar-22 02:32N 32°53' E 035°01'0 0.0
2017-Mar-22 01:29N 32°53' E 035°01'0 0.1
2017-Mar-22 00:29N 32°53' E 035°01'0 0.0
2017-Mar-21 23:23N 32°54' E 035°01'0 0.1
2017-Mar-21 22:20N 32°53' E 035°01'0 0.0
2017-Mar-21 21:29N 32°53' E 035°01'0 0.0
2017-Mar-21 20:32N 32°53' E 035°01'0 0.0
2017-Mar-21 19:23N 32°53' E 035°01'0 0.0
2017-Mar-21 18:32N 32°53' E 035°01'0 0.0
2017-Mar-21 17:29N 32°53' E 035°01'3 2.8
2017-Mar-21 16:34N 32°53' E 034°58'52012.9
2017-Mar-20 00:16N 37°26' E 025°55'  
Track history (hours):
 
Tides and Currents Weather Stations Pressure Air Temp Water Temp Dewpoint Dewpoint Depression Visibility Wind Speed Wind Dir Waves Ship Positions

Black Star

Last reported at 2017-Mar-26 16:30 UTC. Time now 2017-Mar-26 18:47 UTC.
Position N 34°35' E 034°48'.

Length 128 m; draft 5.7 m.

Type: Tanker. MMSI: 256714000.

Date/timePositionNaut miles runAvg speedWind from/ knotsBaromVisibWave heightAir tempDewpointWater temp
2017-Mar-26 16:30N 34°35' E 034°48'1314.0
2017-Mar-26 15:33N 34°22' E 034°46'1414.5
2017-Mar-26 14:33N 34°07' E 034°44'2914.6
2017-Mar-26 12:32N 33°38' E 034°38'1414.0
2017-Mar-26 11:33N 33°25' E 034°35'2613.2
2017-Mar-26 09:33N 32°58' E 034°35'1413.8
2017-Mar-26 08:33N 32°54' E 034°51'8 8.3
2017-Mar-26 07:33N 32°52' E 035°00'1 0.5
2017-Mar-26 06:26N 32°53' E 035°01'1 1.5
2017-Mar-26 05:33N 32°52' E 035°00'2 2.2
2017-Mar-26 04:33N 32°52' E 034°57'7 6.6
2017-Mar-26 03:33N 32°54' E 034°50'22 6.9
2017-Mar-26 00:17N 32°58' E 034°23'6 7.3
2017-Mar-25 23:31N 33°03' E 034°23'8 7.2
2017-Mar-25 22:25N 33°11' E 034°22'7 7.6
2017-Mar-25 21:33N 33°17' E 034°20'8 7.8
2017-Mar-25 20:30N 33°25' E 034°18'7 7.5
2017-Mar-25 19:31N 33°33' E 034°16'7 6.2
2017-Mar-25 18:26N 33°38' E 034°21'22 7.4
2017-Mar-25 15:31N 33°56' E 034°05'8 8.6
2017-Mar-25 14:33N 34°04' E 034°02'8 8.3
2017-Mar-25 13:34N 34°11' E 033°58'8 8.1
2017-Mar-25 12:33N 34°19' E 033°55'9 8.6
2017-Mar-25 11:32N 34°27' E 033°52'9 8.6
2017-Mar-25 10:31N 34°36' E 033°48'9 9.1
2017-Mar-25 09:31N 34°44' E 033°45'1212.1
2017-Mar-25 08:33N 34°55' E 033°40'19 0.6
2017-Mar-23 23:28N 34°38' E 033°48'10813.1
2017-Mar-23 15:14N 32°57' E 034°34'1011.2
2017-Mar-23 14:21N 32°56' E 034°45'1012.1
2017-Mar-23 13:33N 32°55' E 034°57'7 3.5
2017-Mar-23 11:29N 32°49' E 035°02'0 0.0
2017-Mar-23 10:29N 32°49' E 035°02'0 0.0
2017-Mar-23 09:29N 32°49' E 035°02'0 0.0
2017-Mar-23 08:17N 32°49' E 035°02'0 0.0
2017-Mar-23 07:29N 32°49' E 035°02'0 0.0
2017-Mar-23 06:29N 32°49' E 035°02'0 0.0
2017-Mar-23 04:11N 32°49' E 035°02'0 0.0
2017-Mar-23 03:29N 32°49' E 035°02'0 0.0
2017-Mar-23 02:29N 32°49' E 035°02'0 0.0
2017-Mar-23 01:29N 32°49' E 035°02'0 0.0
2017-Mar-23 00:29N 32°49' E 035°02'0 0.0
2017-Mar-22 23:23N 32°49' E 035°02'0 0.0
2017-Mar-22 22:23N 32°49' E 035°02'0 0.0
2017-Mar-22 21:11N 32°49' E 035°02'0 0.0
2017-Mar-22 20:29N 32°49' E 035°02'0 0.0
2017-Mar-22 19:29N 32°49' E 035°02'2 0.5
2017-Mar-22 15:05N 32°51' E 035°01'1 1.0
2017-Mar-22 14:33N 32°51' E 034°60'3 2.6
2017-Mar-22 13:33N 32°54' E 035°01'0 0.3
2017-Mar-22 12:32N 32°53' E 035°01'0 0.0
2017-Mar-22 10:32N 32°53' E 035°01'0 0.0
2017-Mar-22 09:26N 32°53' E 035°01'0 0.0
2017-Mar-22 08:20N 32°53' E 035°01'0 0.1
2017-Mar-22 06:32N 32°54' E 035°01'0 0.0
2017-Mar-22 05:29N 32°54' E 035°01'0 0.0
2017-Mar-22 04:32N 32°54' E 035°01'0 0.0
2017-Mar-22 03:32N 32°53' E 035°01'0 0.0
2017-Mar-22 02:32N 32°53' E 035°01'0 0.0
2017-Mar-22 01:29N 32°53' E 035°01'0 0.1
2017-Mar-22 00:29N 32°53' E 035°01'0 0.0
2017-Mar-21 23:23N 32°54' E 035°01'0 0.1
2017-Mar-21 22:20N 32°53' E 035°01'0 0.0
2017-Mar-21 21:29N 32°53' E 035°01'0 0.0
2017-Mar-21 20:32N 32°53' E 035°01'0 0.0
2017-Mar-21 19:23N 32°53' E 035°01'0 0.0
2017-Mar-21 18:32N 32°53' E 035°01'0 0.0
2017-Mar-21 17:29N 32°53' E 035°01'3 2.8
2017-Mar-21 16:34N 32°53' E 034°58'52012.9
2017-Mar-20 00:16N 37°26' E 025°55'  

Dump ship's entire track history